sensor_id;sensor_type;location;lat;lon;timestamp;P1;durP1;ratioP1;P2;durP2;ratioP2
20794;SDS011;28087;-33.874;151.240;2024-02-04T00:03:03;17.80;;;4.30;;
20794;SDS011;28087;-33.874;151.240;2024-02-04T00:06:11;17.35;;;4.82;;
20794;SDS011;28087;-33.874;151.240;2024-02-04T00:09:18;20.23;;;4.63;;
20794;SDS011;28087;-33.874;151.240;2024-02-04T00:12:25;19.00;;;4.55;;
20794;SDS011;28087;-33.874;151.240;2024-02-04T00:15:33;18.45;;;4.53;;
20794;SDS011;28087;-33.874;151.240;2024-02-04T00:18:43;33.88;;;6.03;;
20794;SDS011;28087;-33.874;151.240;2024-02-04T00:21:51;33.17;;;5.80;;
20794;SDS011;28087;-33.874;151.240;2024-02-04T00:24:58;18.38;;;5.00;;
20794;SDS011;28087;-33.874;151.240;2024-02-04T00:28:08;19.65;;;5.00;;
20794;SDS011;28087;-33.874;151.240;2024-02-04T00:31:16;18.23;;;4.70;;
20794;SDS011;28087;-33.874;151.240;2024-02-04T00:34:24;19.90;;;5.05;;
20794;SDS011;28087;-33.874;151.240;2024-02-04T00:37:32;17.17;;;4.75;;
20794;SDS011;28087;-33.874;151.240;2024-02-04T00:40:38;17.00;;;4.70;;
20794;SDS011;28087;-33.874;151.240;2024-02-04T00:43:45;15.63;;;4.65;;
20794;SDS011;28087;-33.874;151.240;2024-02-04T00:46:51;18.92;;;5.05;;
20794;SDS011;28087;-33.874;151.240;2024-02-04T00:50:01;20.05;;;5.40;;
20794;SDS011;28087;-33.874;151.240;2024-02-04T00:53:08;22.30;;;5.07;;
20794;SDS011;28087;-33.874;151.240;2024-02-04T00:56:16;21.52;;;5.68;;
20794;SDS011;28087;-33.874;151.240;2024-02-04T00:59:23;19.55;;;4.78;;
20794;SDS011;28087;-33.874;151.240;2024-02-04T01:02:29;19.90;;;5.25;;
20794;SDS011;28087;-33.874;151.240;2024-02-04T01:05:38;25.95;;;5.88;;
20794;SDS011;28087;-33.874;151.240;2024-02-04T01:08:45;18.35;;;4.85;;
20794;SDS011;28087;-33.874;151.240;2024-02-04T01:11:51;16.30;;;4.75;;
20794;SDS011;28087;-33.874;151.240;2024-02-04T01:14:58;19.27;;;5.20;;
20794;SDS011;28087;-33.874;151.240;2024-02-04T01:18:06;20.70;;;5.07;;
20794;SDS011;28087;-33.874;151.240;2024-02-04T01:21:11;23.63;;;5.32;;
20794;SDS011;28087;-33.874;151.240;2024-02-04T01:24:13;17.17;;;4.57;;
20794;SDS011;28087;-33.874;151.240;2024-02-04T01:27:19;18.80;;;5.10;;
20794;SDS011;28087;-33.874;151.240;2024-02-04T01:30:27;22.77;;;5.22;;
20794;SDS011;28087;-33.874;151.240;2024-02-04T01:33:36;21.70;;;4.80;;
20794;SDS011;28087;-33.874;151.240;2024-02-04T01:36:45;15.60;;;4.93;;
20794;SDS011;28087;-33.874;151.240;2024-02-04T01:39:52;14.80;;;4.25;;
20794;SDS011;28087;-33.874;151.240;2024-02-04T01:42:59;21.00;;;5.10;;
20794;SDS011;28087;-33.874;151.240;2024-02-04T01:46:05;19.58;;;4.80;;
20794;SDS011;28087;-33.874;151.240;2024-02-04T01:49:13;19.45;;;4.90;;
20794;SDS011;28087;-33.874;151.240;2024-02-04T01:52:21;17.77;;;5.28;;
20794;SDS011;28087;-33.874;151.240;2024-02-04T01:55:28;19.08;;;5.32;;
20794;SDS011;28087;-33.874;151.240;2024-02-04T01:58:35;19.58;;;5.82;;
20794;SDS011;28087;-33.874;151.240;2024-02-04T02:01:42;15.80;;;5.00;;
20794;SDS011;28087;-33.874;151.240;2024-02-04T02:04:48;22.50;;;5.07;;
20794;SDS011;28087;-33.874;151.240;2024-02-04T02:07:58;19.27;;;5.10;;
20794;SDS011;28087;-33.874;151.240;2024-02-04T02:11:05;19.20;;;5.22;;
20794;SDS011;28087;-33.874;151.240;2024-02-04T02:14:14;18.98;;;5.47;;
20794;SDS011;28087;-33.874;151.240;2024-02-04T02:17:26;18.60;;;5.50;;
20794;SDS011;28087;-33.874;151.240;2024-02-04T02:21:09;17.42;;;5.78;;
20794;SDS011;28087;-33.874;151.240;2024-02-04T02:24:30;19.98;;;6.68;;
20794;SDS011;28087;-33.874;151.240;2024-02-04T02:27:45;16.77;;;6.60;;
20794;SDS011;28087;-33.874;151.240;2024-02-04T02:30:54;19.17;;;6.10;;
20794;SDS011;28087;-33.874;151.240;2024-02-04T02:34:02;21.25;;;6.85;;
20794;SDS011;28087;-33.874;151.240;2024-02-04T02:37:27;20.88;;;6.53;;
20794;SDS011;28087;-33.874;151.240;2024-02-04T02:40:44;16.27;;;6.10;;
20794;SDS011;28087;-33.874;151.240;2024-02-04T02:43:52;17.48;;;6.20;;
20794;SDS011;28087;-33.874;151.240;2024-02-04T02:47:00;25.27;;;6.00;;
20794;SDS011;28087;-33.874;151.240;2024-02-04T02:50:09;22.70;;;6.00;;
20794;SDS011;28087;-33.874;151.240;2024-02-04T02:53:15;25.02;;;6.05;;
20794;SDS011;28087;-33.874;151.240;2024-02-04T02:56:23;20.20;;;5.55;;
20794;SDS011;28087;-33.874;151.240;2024-02-04T02:59:30;19.38;;;5.63;;
20794;SDS011;28087;-33.874;151.240;2024-02-04T03:02:37;19.17;;;5.57;;
20794;SDS011;28087;-33.874;151.240;2024-02-04T03:05:44;20.02;;;5.68;;
20794;SDS011;28087;-33.874;151.240;2024-02-04T03:08:51;16.75;;;5.30;;
20794;SDS011;28087;-33.874;151.240;2024-02-04T03:11:59;18.88;;;5.30;;
20794;SDS011;28087;-33.874;151.240;2024-02-04T03:15:06;15.35;;;5.32;;
20794;SDS011;28087;-33.874;151.240;2024-02-04T03:18:15;15.80;;;5.38;;
20794;SDS011;28087;-33.874;151.240;2024-02-04T03:21:22;19.40;;;6.00;;
20794;SDS011;28087;-33.874;151.240;2024-02-04T03:24:29;22.05;;;9.38;;
20794;SDS011;28087;-33.874;151.240;2024-02-04T03:27:39;26.60;;;12.57;;
20794;SDS011;28087;-33.874;151.240;2024-02-04T03:30:47;31.00;;;18.60;;
20794;SDS011;28087;-33.874;151.240;2024-02-04T03:33:54;35.75;;;21.10;;
20794;SDS011;28087;-33.874;151.240;2024-02-04T03:37:02;37.38;;;23.10;;
20794;SDS011;28087;-33.874;151.240;2024-02-04T03:40:09;42.50;;;28.35;;
20794;SDS011;28087;-33.874;151.240;2024-02-04T03:43:20;42.55;;;30.08;;
20794;SDS011;28087;-33.874;151.240;2024-02-04T03:46:28;51.50;;;32.63;;
20794;SDS011;28087;-33.874;151.240;2024-02-04T03:49:30;52.25;;;32.50;;
20794;SDS011;28087;-33.874;151.240;2024-02-04T03:52:37;47.75;;;31.05;;
20794;SDS011;28087;-33.874;151.240;2024-02-04T03:55:45;45.55;;;30.83;;
20794;SDS011;28087;-33.874;151.240;2024-02-04T03:58:53;45.08;;;30.65;;
20794;SDS011;28087;-33.874;151.240;2024-02-04T04:02:01;43.90;;;31.13;;
20794;SDS011;28087;-33.874;151.240;2024-02-04T04:05:10;51.03;;;33.33;;
20794;SDS011;28087;-33.874;151.240;2024-02-04T04:08:18;46.08;;;33.40;;
20794;SDS011;28087;-33.874;151.240;2024-02-04T04:11:24;50.85;;;32.85;;
20794;SDS011;28087;-33.874;151.240;2024-02-04T04:14:33;44.50;;;31.60;;
20794;SDS011;28087;-33.874;151.240;2024-02-04T04:17:39;43.60;;;30.60;;
20794;SDS011;28087;-33.874;151.240;2024-02-04T04:20:47;41.25;;;29.15;;
20794;SDS011;28087;-33.874;151.240;2024-02-04T04:23:53;39.53;;;25.70;;
20794;SDS011;28087;-33.874;151.240;2024-02-04T04:26:59;35.63;;;22.25;;
20794;SDS011;28087;-33.874;151.240;2024-02-04T04:30:08;36.30;;;20.83;;
20794;SDS011;28087;-33.874;151.240;2024-02-04T04:33:16;28.23;;;17.60;;
20794;SDS011;28087;-33.874;151.240;2024-02-04T04:36:22;29.40;;;15.40;;
20794;SDS011;28087;-33.874;151.240;2024-02-04T04:39:29;25.58;;;11.65;;
20794;SDS011;28087;-33.874;151.240;2024-02-04T04:42:35;21.58;;;10.07;;
20794;SDS011;28087;-33.874;151.240;2024-02-04T04:45:44;22.23;;;8.07;;
20794;SDS011;28087;-33.874;151.240;2024-02-04T04:48:51;22.15;;;7.18;;
20794;SDS011;28087;-33.874;151.240;2024-02-04T04:51:59;19.17;;;5.80;;
20794;SDS011;28087;-33.874;151.240;2024-02-04T04:55:05;24.20;;;6.15;;
20794;SDS011;28087;-33.874;151.240;2024-02-04T04:58:11;17.05;;;4.78;;
20794;SDS011;28087;-33.874;151.240;2024-02-04T05:01:19;18.95;;;4.70;;
20794;SDS011;28087;-33.874;151.240;2024-02-04T05:04:26;19.70;;;5.47;;
20794;SDS011;28087;-33.874;151.240;2024-02-04T05:07:33;17.15;;;4.82;;
20794;SDS011;28087;-33.874;151.240;2024-02-04T05:10:41;22.17;;;5.13;;
20794;SDS011;28087;-33.874;151.240;2024-02-04T05:13:47;23.25;;;5.40;;
20794;SDS011;28087;-33.874;151.240;2024-02-04T05:16:56;16.75;;;4.82;;
20794;SDS011;28087;-33.874;151.240;2024-02-04T05:20:01;18.23;;;5.63;;
20794;SDS011;28087;-33.874;151.240;2024-02-04T05:23:07;24.67;;;6.10;;
20794;SDS011;28087;-33.874;151.240;2024-02-04T05:26:13;20.77;;;5.18;;
20794;SDS011;28087;-33.874;151.240;2024-02-04T05:29:19;18.13;;;5.00;;
20794;SDS011;28087;-33.874;151.240;2024-02-04T05:32:28;17.98;;;5.00;;
20794;SDS011;28087;-33.874;151.240;2024-02-04T05:35:28;15.85;;;4.38;;
20794;SDS011;28087;-33.874;151.240;2024-02-04T05:38:28;19.58;;;4.45;;
20794;SDS011;28087;-33.874;151.240;2024-02-04T05:41:35;19.48;;;4.47;;
20794;SDS011;28087;-33.874;151.240;2024-02-04T05:44:42;24.98;;;5.57;;
20794;SDS011;28087;-33.874;151.240;2024-02-04T05:47:52;20.73;;;4.82;;
20794;SDS011;28087;-33.874;151.240;2024-02-04T05:51:00;20.55;;;4.68;;
20794;SDS011;28087;-33.874;151.240;2024-02-04T05:54:07;20.63;;;4.97;;
20794;SDS011;28087;-33.874;151.240;2024-02-04T05:57:15;20.25;;;4.75;;
20794;SDS011;28087;-33.874;151.240;2024-02-04T06:00:22;18.17;;;5.18;;
20794;SDS011;28087;-33.874;151.240;2024-02-04T06:03:30;23.08;;;4.93;;
20794;SDS011;28087;-33.874;151.240;2024-02-04T06:06:38;24.02;;;5.80;;
20794;SDS011;28087;-33.874;151.240;2024-02-04T06:09:45;23.60;;;5.18;;
20794;SDS011;28087;-33.874;151.240;2024-02-04T06:12:52;29.77;;;5.63;;
20794;SDS011;28087;-33.874;151.240;2024-02-04T06:15:59;22.55;;;5.55;;
20794;SDS011;28087;-33.874;151.240;2024-02-04T06:19:07;25.58;;;5.45;;
20794;SDS011;28087;-33.874;151.240;2024-02-04T06:22:13;23.55;;;5.70;;
20794;SDS011;28087;-33.874;151.240;2024-02-04T06:25:21;29.50;;;5.57;;
20794;SDS011;28087;-33.874;151.240;2024-02-04T06:28:28;25.35;;;5.95;;
20794;SDS011;28087;-33.874;151.240;2024-02-04T06:31:35;24.10;;;6.00;;
20794;SDS011;28087;-33.874;151.240;2024-02-04T06:34:44;20.08;;;4.70;;
20794;SDS011;28087;-33.874;151.240;2024-02-04T06:37:52;25.50;;;5.90;;
20794;SDS011;28087;-33.874;151.240;2024-02-04T06:40:59;27.20;;;5.95;;
20794;SDS011;28087;-33.874;151.240;2024-02-04T06:44:05;31.35;;;6.32;;
20794;SDS011;28087;-33.874;151.240;2024-02-04T06:47:11;29.75;;;5.65;;
20794;SDS011;28087;-33.874;151.240;2024-02-04T06:50:19;32.42;;;6.88;;
20794;SDS011;28087;-33.874;151.240;2024-02-04T06:53:26;28.40;;;6.45;;
20794;SDS011;28087;-33.874;151.240;2024-02-04T06:56:33;27.58;;;5.90;;
20794;SDS011;28087;-33.874;151.240;2024-02-04T06:59:41;31.85;;;6.78;;
20794;SDS011;28087;-33.874;151.240;2024-02-04T07:02:47;30.50;;;6.45;;
20794;SDS011;28087;-33.874;151.240;2024-02-04T07:05:58;26.98;;;6.75;;
20794;SDS011;28087;-33.874;151.240;2024-02-04T07:09:06;32.92;;;7.15;;
20794;SDS011;28087;-33.874;151.240;2024-02-04T07:12:12;36.95;;;7.97;;
20794;SDS011;28087;-33.874;151.240;2024-02-04T07:15:18;24.42;;;6.07;;
20794;SDS011;28087;-33.874;151.240;2024-02-04T07:18:24;33.30;;;7.03;;
20794;SDS011;28087;-33.874;151.240;2024-02-04T07:21:33;35.42;;;7.55;;
20794;SDS011;28087;-33.874;151.240;2024-02-04T07:24:42;27.63;;;7.53;;
20794;SDS011;28087;-33.874;151.240;2024-02-04T07:27:49;32.00;;;7.30;;
20794;SDS011;28087;-33.874;151.240;2024-02-04T07:30:57;28.63;;;6.72;;
20794;SDS011;28087;-33.874;151.240;2024-02-04T07:34:05;28.55;;;7.15;;
20794;SDS011;28087;-33.874;151.240;2024-02-04T07:37:13;29.63;;;6.70;;
20794;SDS011;28087;-33.874;151.240;2024-02-04T07:40:20;32.55;;;7.72;;
20794;SDS011;28087;-33.874;151.240;2024-02-04T07:43:28;33.30;;;7.28;;
20794;SDS011;28087;-33.874;151.240;2024-02-04T07:46:36;31.27;;;7.47;;
20794;SDS011;28087;-33.874;151.240;2024-02-04T07:49:43;31.60;;;7.32;;
20794;SDS011;28087;-33.874;151.240;2024-02-04T07:52:52;35.67;;;8.48;;
20794;SDS011;28087;-33.874;151.240;2024-02-04T07:55:59;28.17;;;7.25;;
20794;SDS011;28087;-33.874;151.240;2024-02-04T07:59:07;31.90;;;7.25;;
20794;SDS011;28087;-33.874;151.240;2024-02-04T08:02:15;36.25;;;7.38;;
20794;SDS011;28087;-33.874;151.240;2024-02-04T08:05:22;32.53;;;8.02;;
20794;SDS011;28087;-33.874;151.240;2024-02-04T08:08:33;37.55;;;7.65;;
20794;SDS011;28087;-33.874;151.240;2024-02-04T08:11:40;32.33;;;7.88;;
20794;SDS011;28087;-33.874;151.240;2024-02-04T08:14:47;33.70;;;8.27;;
20794;SDS011;28087;-33.874;151.240;2024-02-04T08:17:53;32.72;;;8.48;;
20794;SDS011;28087;-33.874;151.240;2024-02-04T08:21:00;33.00;;;7.88;;
20794;SDS011;28087;-33.874;151.240;2024-02-04T08:24:09;36.97;;;8.00;;
20794;SDS011;28087;-33.874;151.240;2024-02-04T08:27:16;31.02;;;7.88;;
20794;SDS011;28087;-33.874;151.240;2024-02-04T08:30:22;34.28;;;8.05;;
20794;SDS011;28087;-33.874;151.240;2024-02-04T08:33:29;45.60;;;9.02;;
20794;SDS011;28087;-33.874;151.240;2024-02-04T08:36:36;32.83;;;8.45;;
20794;SDS011;28087;-33.874;151.240;2024-02-04T08:39:44;33.97;;;8.57;;
20794;SDS011;28087;-33.874;151.240;2024-02-04T08:42:49;34.15;;;8.05;;
20794;SDS011;28087;-33.874;151.240;2024-02-04T08:45:56;36.60;;;7.55;;
20794;SDS011;28087;-33.874;151.240;2024-02-04T08:49:02;38.70;;;7.85;;
20794;SDS011;28087;-33.874;151.240;2024-02-04T08:52:10;40.38;;;9.63;;
20794;SDS011;28087;-33.874;151.240;2024-02-04T08:55:19;40.75;;;8.57;;
20794;SDS011;28087;-33.874;151.240;2024-02-04T08:58:29;39.25;;;8.43;;
20794;SDS011;28087;-33.874;151.240;2024-02-04T09:01:30;43.05;;;9.18;;
20794;SDS011;28087;-33.874;151.240;2024-02-04T09:04:31;48.00;;;8.90;;
20794;SDS011;28087;-33.874;151.240;2024-02-04T09:07:41;43.13;;;8.13;;
20794;SDS011;28087;-33.874;151.240;2024-02-04T09:10:50;43.75;;;8.88;;
20794;SDS011;28087;-33.874;151.240;2024-02-04T09:13:58;40.28;;;10.20;;
20794;SDS011;28087;-33.874;151.240;2024-02-04T09:17:05;42.72;;;9.20;;
20794;SDS011;28087;-33.874;151.240;2024-02-04T09:20:11;35.13;;;8.30;;
20794;SDS011;28087;-33.874;151.240;2024-02-04T09:23:19;47.13;;;8.57;;
20794;SDS011;28087;-33.874;151.240;2024-02-04T09:26:27;40.42;;;7.75;;
20794;SDS011;28087;-33.874;151.240;2024-02-04T09:29:33;35.72;;;7.65;;
20794;SDS011;28087;-33.874;151.240;2024-02-04T09:32:39;37.78;;;8.00;;
20794;SDS011;28087;-33.874;151.240;2024-02-04T09:35:46;43.50;;;9.18;;
20794;SDS011;28087;-33.874;151.240;2024-02-04T09:38:54;41.10;;;8.68;;
20794;SDS011;28087;-33.874;151.240;2024-02-04T09:42:04;39.25;;;8.45;;
20794;SDS011;28087;-33.874;151.240;2024-02-04T09:45:10;38.15;;;8.77;;
20794;SDS011;28087;-33.874;151.240;2024-02-04T09:48:20;36.75;;;8.85;;
20794;SDS011;28087;-33.874;151.240;2024-02-04T09:51:28;39.75;;;9.55;;
20794;SDS011;28087;-33.874;151.240;2024-02-04T09:54:36;36.58;;;8.75;;
20794;SDS011;28087;-33.874;151.240;2024-02-04T09:57:47;39.75;;;9.23;;
20794;SDS011;28087;-33.874;151.240;2024-02-04T10:00:55;39.20;;;8.57;;
20794;SDS011;28087;-33.874;151.240;2024-02-04T10:04:05;38.55;;;8.80;;
20794;SDS011;28087;-33.874;151.240;2024-02-04T10:07:06;44.13;;;9.07;;
20794;SDS011;28087;-33.874;151.240;2024-02-04T10:10:08;40.03;;;8.43;;
20794;SDS011;28087;-33.874;151.240;2024-02-04T10:13:19;37.72;;;8.18;;
20794;SDS011;28087;-33.874;151.240;2024-02-04T10:16:27;38.78;;;8.52;;
20794;SDS011;28087;-33.874;151.240;2024-02-04T10:19:33;39.38;;;9.00;;
20794;SDS011;28087;-33.874;151.240;2024-02-04T10:22:42;40.58;;;8.82;;
20794;SDS011;28087;-33.874;151.240;2024-02-04T10:25:57;41.58;;;8.73;;
20794;SDS011;28087;-33.874;151.240;2024-02-04T10:29:07;43.42;;;9.05;;
20794;SDS011;28087;-33.874;151.240;2024-02-04T10:32:14;41.63;;;8.65;;
20794;SDS011;28087;-33.874;151.240;2024-02-04T10:35:21;49.65;;;9.82;;
20794;SDS011;28087;-33.874;151.240;2024-02-04T10:38:28;40.38;;;8.73;;
20794;SDS011;28087;-33.874;151.240;2024-02-04T10:41:34;40.42;;;8.90;;
20794;SDS011;28087;-33.874;151.240;2024-02-04T10:44:47;44.88;;;9.02;;
20794;SDS011;28087;-33.874;151.240;2024-02-04T10:47:55;41.22;;;8.57;;
20794;SDS011;28087;-33.874;151.240;2024-02-04T10:51:02;46.72;;;8.82;;
20794;SDS011;28087;-33.874;151.240;2024-02-04T10:54:11;47.30;;;9.43;;
20794;SDS011;28087;-33.874;151.240;2024-02-04T10:57:20;43.70;;;8.98;;
20794;SDS011;28087;-33.874;151.240;2024-02-04T11:00:30;42.30;;;8.73;;
20794;SDS011;28087;-33.874;151.240;2024-02-04T11:03:46;42.08;;;9.40;;
20794;SDS011;28087;-33.874;151.240;2024-02-04T11:06:54;48.92;;;9.95;;
20794;SDS011;28087;-33.874;151.240;2024-02-04T11:09:55;44.85;;;8.63;;
20794;SDS011;28087;-33.874;151.240;2024-02-04T11:13:04;42.08;;;8.57;;
20794;SDS011;28087;-33.874;151.240;2024-02-04T11:16:18;40.35;;;9.07;;
20794;SDS011;28087;-33.874;151.240;2024-02-04T11:19:31;41.95;;;9.30;;
20794;SDS011;28087;-33.874;151.240;2024-02-04T11:26:04;47.42;;;9.90;;
20794;SDS011;28087;-33.874;151.240;2024-02-04T11:29:10;45.15;;;9.25;;
20794;SDS011;28087;-33.874;151.240;2024-02-04T11:32:22;43.20;;;9.25;;
20794;SDS011;28087;-33.874;151.240;2024-02-04T11:35:30;44.92;;;9.45;;
20794;SDS011;28087;-33.874;151.240;2024-02-04T11:38:38;50.40;;;9.75;;
20794;SDS011;28087;-33.874;151.240;2024-02-04T11:41:45;47.92;;;9.38;;
20794;SDS011;28087;-33.874;151.240;2024-02-04T11:44:52;48.58;;;9.77;;
20794;SDS011;28087;-33.874;151.240;2024-02-04T11:48:15;53.97;;;10.02;;
20794;SDS011;28087;-33.874;151.240;2024-02-04T11:51:22;44.30;;;9.13;;
20794;SDS011;28087;-33.874;151.240;2024-02-04T11:54:29;39.35;;;8.45;;
20794;SDS011;28087;-33.874;151.240;2024-02-04T11:57:38;43.75;;;9.10;;
20794;SDS011;28087;-33.874;151.240;2024-02-04T12:00:46;43.92;;;8.43;;
20794;SDS011;28087;-33.874;151.240;2024-02-04T12:03:56;43.97;;;9.10;;
20794;SDS011;28087;-33.874;151.240;2024-02-04T12:07:06;46.25;;;8.73;;
20794;SDS011;28087;-33.874;151.240;2024-02-04T12:10:13;44.67;;;9.30;;
20794;SDS011;28087;-33.874;151.240;2024-02-04T12:13:21;52.20;;;9.48;;
20794;SDS011;28087;-33.874;151.240;2024-02-04T12:16:29;46.38;;;9.60;;
20794;SDS011;28087;-33.874;151.240;2024-02-04T12:19:38;53.72;;;10.52;;
20794;SDS011;28087;-33.874;151.240;2024-02-04T12:22:44;41.33;;;8.73;;
20794;SDS011;28087;-33.874;151.240;2024-02-04T12:25:51;46.92;;;9.27;;
20794;SDS011;28087;-33.874;151.240;2024-02-04T12:28:57;34.22;;;8.18;;
20794;SDS011;28087;-33.874;151.240;2024-02-04T12:32:03;41.22;;;9.25;;
20794;SDS011;28087;-33.874;151.240;2024-02-04T12:35:15;32.30;;;8.38;;
20794;SDS011;28087;-33.874;151.240;2024-02-04T12:38:22;42.20;;;8.80;;
20794;SDS011;28087;-33.874;151.240;2024-02-04T12:41:29;46.20;;;9.95;;
20794;SDS011;28087;-33.874;151.240;2024-02-04T12:44:36;39.95;;;8.82;;
20794;SDS011;28087;-33.874;151.240;2024-02-04T12:47:42;49.88;;;9.68;;
20794;SDS011;28087;-33.874;151.240;2024-02-04T12:50:54;47.97;;;9.43;;
20794;SDS011;28087;-33.874;151.240;2024-02-04T12:54:05;43.63;;;9.18;;
20794;SDS011;28087;-33.874;151.240;2024-02-04T12:57:21;45.25;;;9.13;;
20794;SDS011;28087;-33.874;151.240;2024-02-04T13:00:29;43.28;;;8.77;;
20794;SDS011;28087;-33.874;151.240;2024-02-04T13:03:35;46.05;;;8.63;;
20794;SDS011;28087;-33.874;151.240;2024-02-04T13:06:45;46.25;;;9.68;;
20794;SDS011;28087;-33.874;151.240;2024-02-04T13:09:57;40.83;;;8.55;;
20794;SDS011;28087;-33.874;151.240;2024-02-04T13:13:04;41.25;;;8.98;;
20794;SDS011;28087;-33.874;151.240;2024-02-04T13:16:10;44.67;;;9.63;;
20794;SDS011;28087;-33.874;151.240;2024-02-04T13:19:19;37.88;;;8.57;;
20794;SDS011;28087;-33.874;151.240;2024-02-04T13:22:28;43.60;;;9.77;;
20794;SDS011;28087;-33.874;151.240;2024-02-04T13:25:29;39.40;;;8.63;;
20794;SDS011;28087;-33.874;151.240;2024-02-04T13:28:32;51.45;;;9.88;;
20794;SDS011;28087;-33.874;151.240;2024-02-04T13:31:39;44.50;;;9.07;;
20794;SDS011;28087;-33.874;151.240;2024-02-04T13:34:48;39.97;;;9.20;;
20794;SDS011;28087;-33.874;151.240;2024-02-04T13:38:07;41.38;;;9.20;;
20794;SDS011;28087;-33.874;151.240;2024-02-04T13:41:14;49.38;;;9.93;;
20794;SDS011;28087;-33.874;151.240;2024-02-04T13:44:20;40.13;;;9.57;;
20794;SDS011;28087;-33.874;151.240;2024-02-04T13:47:27;42.28;;;9.23;;
20794;SDS011;28087;-33.874;151.240;2024-02-04T13:50:34;46.72;;;8.70;;
20794;SDS011;28087;-33.874;151.240;2024-02-04T13:53:42;48.72;;;9.57;;
20794;SDS011;28087;-33.874;151.240;2024-02-04T13:56:47;42.30;;;8.90;;
20794;SDS011;28087;-33.874;151.240;2024-02-04T13:59:53;49.15;;;9.60;;
20794;SDS011;28087;-33.874;151.240;2024-02-04T14:03:01;42.38;;;8.90;;
20794;SDS011;28087;-33.874;151.240;2024-02-04T14:06:09;49.97;;;9.63;;
20794;SDS011;28087;-33.874;151.240;2024-02-04T14:09:18;41.03;;;9.25;;
20794;SDS011;28087;-33.874;151.240;2024-02-04T14:12:23;43.65;;;9.35;;
20794;SDS011;28087;-33.874;151.240;2024-02-04T14:15:30;43.85;;;9.55;;
20794;SDS011;28087;-33.874;151.240;2024-02-04T14:18:39;38.85;;;9.35;;
20794;SDS011;28087;-33.874;151.240;2024-02-04T14:21:48;52.42;;;10.20;;
20794;SDS011;28087;-33.874;151.240;2024-02-04T14:24:58;43.78;;;9.43;;
20794;SDS011;28087;-33.874;151.240;2024-02-04T14:27:58;41.95;;;8.70;;
20794;SDS011;28087;-33.874;151.240;2024-02-04T14:30:59;44.53;;;9.27;;
20794;SDS011;28087;-33.874;151.240;2024-02-04T14:34:06;41.67;;;9.27;;
20794;SDS011;28087;-33.874;151.240;2024-02-04T14:37:07;42.60;;;9.35;;
20794;SDS011;28087;-33.874;151.240;2024-02-04T14:40:10;48.83;;;9.13;;
20794;SDS011;28087;-33.874;151.240;2024-02-04T14:43:17;40.65;;;8.63;;
20794;SDS011;28087;-33.874;151.240;2024-02-04T14:46:24;43.20;;;8.55;;
20794;SDS011;28087;-33.874;151.240;2024-02-04T14:49:30;41.30;;;9.00;;
20794;SDS011;28087;-33.874;151.240;2024-02-04T14:52:37;39.92;;;8.52;;
20794;SDS011;28087;-33.874;151.240;2024-02-04T14:55:45;41.83;;;8.68;;
20794;SDS011;28087;-33.874;151.240;2024-02-04T14:58:53;42.47;;;8.68;;
20794;SDS011;28087;-33.874;151.240;2024-02-04T15:02:10;47.95;;;9.38;;
20794;SDS011;28087;-33.874;151.240;2024-02-04T15:05:16;40.25;;;8.43;;
20794;SDS011;28087;-33.874;151.240;2024-02-04T15:08:23;47.05;;;9.63;;
20794;SDS011;28087;-33.874;151.240;2024-02-04T15:11:31;45.90;;;8.60;;
20794;SDS011;28087;-33.874;151.240;2024-02-04T15:14:39;38.38;;;8.43;;
20794;SDS011;28087;-33.874;151.240;2024-02-04T15:17:47;42.42;;;8.70;;
20794;SDS011;28087;-33.874;151.240;2024-02-04T15:20:56;45.40;;;9.40;;
20794;SDS011;28087;-33.874;151.240;2024-02-04T15:24:02;40.90;;;9.05;;
20794;SDS011;28087;-33.874;151.240;2024-02-04T15:27:11;43.05;;;8.90;;
20794;SDS011;28087;-33.874;151.240;2024-02-04T15:30:19;41.20;;;8.93;;
20794;SDS011;28087;-33.874;151.240;2024-02-04T15:33:25;42.88;;;9.68;;
20794;SDS011;28087;-33.874;151.240;2024-02-04T15:36:34;41.83;;;9.15;;
20794;SDS011;28087;-33.874;151.240;2024-02-04T15:39:42;39.42;;;9.20;;
20794;SDS011;28087;-33.874;151.240;2024-02-04T15:42:52;45.70;;;8.68;;
20794;SDS011;28087;-33.874;151.240;2024-02-04T15:45:54;42.10;;;9.15;;
20794;SDS011;28087;-33.874;151.240;2024-02-04T15:48:57;44.03;;;9.23;;
20794;SDS011;28087;-33.874;151.240;2024-02-04T15:52:07;41.67;;;9.75;;
20794;SDS011;28087;-33.874;151.240;2024-02-04T15:55:15;43.50;;;9.45;;
20794;SDS011;28087;-33.874;151.240;2024-02-04T15:58:22;42.33;;;9.68;;
20794;SDS011;28087;-33.874;151.240;2024-02-04T16:01:32;39.17;;;8.93;;
20794;SDS011;28087;-33.874;151.240;2024-02-04T16:04:42;40.97;;;9.45;;
20794;SDS011;28087;-33.874;151.240;2024-02-04T16:07:49;41.75;;;8.88;;
20794;SDS011;28087;-33.874;151.240;2024-02-04T16:10:55;38.25;;;8.57;;
20794;SDS011;28087;-33.874;151.240;2024-02-04T16:14:03;33.28;;;7.85;;
20794;SDS011;28087;-33.874;151.240;2024-02-04T16:17:11;43.17;;;8.27;;
20794;SDS011;28087;-33.874;151.240;2024-02-04T16:20:21;40.03;;;8.93;;
20794;SDS011;28087;-33.874;151.240;2024-02-04T16:23:29;36.92;;;8.07;;
20794;SDS011;28087;-33.874;151.240;2024-02-04T16:26:39;36.28;;;8.23;;
20794;SDS011;28087;-33.874;151.240;2024-02-04T16:29:48;47.40;;;9.35;;
20794;SDS011;28087;-33.874;151.240;2024-02-04T16:32:55;39.13;;;8.80;;
20794;SDS011;28087;-33.874;151.240;2024-02-04T16:36:02;38.78;;;8.68;;
20794;SDS011;28087;-33.874;151.240;2024-02-04T16:39:10;36.95;;;8.98;;
20794;SDS011;28087;-33.874;151.240;2024-02-04T16:42:16;41.30;;;9.77;;
20794;SDS011;28087;-33.874;151.240;2024-02-04T16:45:29;49.78;;;10.40;;
20794;SDS011;28087;-33.874;151.240;2024-02-04T16:48:35;44.67;;;9.65;;
20794;SDS011;28087;-33.874;151.240;2024-02-04T16:51:41;46.83;;;9.98;;
20794;SDS011;28087;-33.874;151.240;2024-02-04T16:54:49;38.80;;;9.60;;
20794;SDS011;28087;-33.874;151.240;2024-02-04T16:57:57;49.05;;;9.63;;
20794;SDS011;28087;-33.874;151.240;2024-02-04T17:01:06;41.10;;;8.40;;
20794;SDS011;28087;-33.874;151.240;2024-02-04T17:04:06;41.72;;;8.90;;
20794;SDS011;28087;-33.874;151.240;2024-02-04T17:07:14;42.15;;;8.35;;
20794;SDS011;28087;-33.874;151.240;2024-02-04T17:10:21;36.10;;;9.00;;
20794;SDS011;28087;-33.874;151.240;2024-02-04T17:13:28;41.22;;;9.13;;
20794;SDS011;28087;-33.874;151.240;2024-02-04T17:16:40;42.92;;;9.75;;
20794;SDS011;28087;-33.874;151.240;2024-02-04T17:19:52;35.15;;;8.68;;
20794;SDS011;28087;-33.874;151.240;2024-02-04T17:23:08;47.45;;;10.07;;
20794;SDS011;28087;-33.874;151.240;2024-02-04T17:26:15;37.35;;;8.40;;
20794;SDS011;28087;-33.874;151.240;2024-02-04T17:29:26;50.08;;;10.23;;
20794;SDS011;28087;-33.874;151.240;2024-02-04T17:32:35;46.45;;;9.68;;
20794;SDS011;28087;-33.874;151.240;2024-02-04T17:35:44;32.22;;;7.85;;
20794;SDS011;28087;-33.874;151.240;2024-02-04T17:38:50;34.20;;;8.40;;
20794;SDS011;28087;-33.874;151.240;2024-02-04T17:42:00;31.77;;;7.88;;
20794;SDS011;28087;-33.874;151.240;2024-02-04T17:45:06;37.08;;;8.43;;
20794;SDS011;28087;-33.874;151.240;2024-02-04T17:48:14;29.55;;;7.68;;
20794;SDS011;28087;-33.874;151.240;2024-02-04T17:51:20;44.92;;;9.25;;